Time;durP1;ratioP1;P1;durP2;ratioP2;P2;SDS_P1;SDS_P2;PMS_P1;PMS_P2;Temp;Humidity;BMP_temperature;BMP_pressure;BME280_temperature;BME280_humidity;BME280_pressure;Samples;Min_cycle;Max_cycle;Signal;HPM_P1;HPM_P2
2023/11/24 00:00:17;;;;;;;9.07;4.13;;;12.50;99.90;;;;;;5053439;28;20176;-86
2023/11/24 00:02:43;;;;;;;9.87;3.87;;;12.40;99.90;;;;;;5053961;28;20235;-85
2023/11/24 00:05:09;;;;;;;9.90;3.97;;;12.40;99.90;;;;;;5055547;28;20182;-86
2023/11/24 00:07:37;;;;;;;9.20;4.27;;;12.50;99.90;;;;;;5066830;28;20185;-85
2023/11/24 00:10:05;;;;;;;11.87;4.13;;;12.50;99.90;;;;;;5063624;28;20256;-85
2023/11/24 00:12:30;;;;;;;10.87;3.20;;;12.60;99.90;;;;;;5053662;28;20227;-86
2023/11/24 00:14:56;;;;;;;6.47;2.80;;;12.60;99.90;;;;;;5055103;28;20154;-85
2023/11/24 00:17:22;;;;;;;8.27;3.10;;;12.70;99.90;;;;;;5053403;28;20878;-85
2023/11/24 00:19:48;;;;;;;6.00;2.73;;;12.80;99.90;;;;;;5053824;28;20221;-86
2023/11/24 00:22:13;;;;;;;7.37;3.13;;;12.70;99.90;;;;;;5052865;28;20180;-84
2023/11/24 00:24:39;;;;;;;8.77;2.40;;;12.60;99.90;;;;;;5052956;28;20177;-86
2023/11/24 00:27:06;;;;;;;16.60;3.57;;;12.40;99.90;;;;;;5054262;28;20201;-86
2023/11/24 00:29:32;;;;;;;10.00;2.87;;;12.20;99.90;;;;;;5053344;28;20179;-84
2023/11/24 00:31:58;;;;;;;8.47;3.10;;;12.20;99.90;;;;;;5053144;28;20180;-85
2023/11/24 00:34:23;;;;;;;17.60;3.70;;;12.20;99.90;;;;;;5052610;28;20182;-84
2023/11/24 00:36:49;;;;;;;16.07;3.70;;;12.20;99.90;;;;;;5053175;28;20193;-86
2023/11/24 00:39:15;;;;;;;13.07;3.50;;;12.10;99.90;;;;;;5051986;28;20205;-84
2023/11/24 00:41:41;;;;;;;17.73;4.07;;;12.10;99.90;;;;;;5051989;28;20186;-85
2023/11/24 00:44:06;;;;;;;20.93;4.63;;;12.20;99.90;;;;;;5051554;28;20185;-84
2023/11/24 00:46:32;;;;;;;17.83;4.07;;;12.10;99.90;;;;;;5054206;28;20536;-85
2023/11/24 00:48:58;;;;;;;16.80;4.13;;;12.00;99.90;;;;;;5058886;28;20188;-85
2023/11/24 00:51:24;;;;;;;13.40;3.97;;;12.10;99.90;;;;;;5057424;28;20360;-84
2023/11/24 00:53:51;;;;;;;16.10;4.10;;;12.00;99.90;;;;;;5056354;28;20172;-85
2023/11/24 00:56:17;;;;;;;16.63;4.13;;;12.00;99.90;;;;;;5052136;28;20191;-84
2023/11/24 00:58:43;;;;;;;15.50;4.17;;;12.00;99.90;;;;;;5053189;28;20212;-84
2023/11/24 01:01:11;;;;;;;16.17;3.97;;;12.00;99.90;;;;;;5052162;28;20177;-85
2023/11/24 01:03:40;;;;;;;20.17;4.20;;;12.00;99.90;;;;;;5052464;28;20275;-85
2023/11/24 01:06:06;;;;;;;18.80;4.07;;;12.00;99.90;;;;;;5051926;28;20621;-85
2023/11/24 01:08:31;;;;;;;22.20;4.80;;;11.90;99.90;;;;;;5052389;28;20231;-85
2023/11/24 01:10:57;;;;;;;17.73;5.00;;;12.00;99.90;;;;;;5051531;28;20173;-82
2023/11/24 01:13:24;;;;;;;19.90;4.90;;;12.00;99.90;;;;;;5053135;28;20259;-85
2023/11/24 01:15:50;;;;;;;21.87;4.80;;;12.00;99.90;;;;;;5053749;28;20179;-83
2023/11/24 01:18:18;;;;;;;18.77;3.90;;;12.00;99.90;;;;;;5059581;28;20224;-84
2023/11/24 01:20:44;;;;;;;15.80;4.27;;;12.10;99.90;;;;;;5053655;28;20198;-84
2023/11/24 01:23:10;;;;;;;13.73;4.63;;;12.10;99.90;;;;;;5052468;28;20178;-83
2023/11/24 01:25:35;;;;;;;18.97;4.17;;;12.10;99.90;;;;;;5051958;28;20184;-84
2023/11/24 01:28:01;;;;;;;14.60;4.10;;;12.10;99.90;;;;;;5051252;28;20167;-84
2023/11/24 01:30:27;;;;;;;21.07;4.47;;;12.10;99.90;;;;;;5052108;28;20183;-84
2023/11/24 01:32:53;;;;;;;13.87;4.30;;;12.10;99.90;;;;;;5052116;28;20755;-84
2023/11/24 01:35:18;;;;;;;23.20;5.50;;;12.10;99.90;;;;;;5051496;28;20171;-83
2023/11/24 01:37:44;;;;;;;20.10;4.67;;;12.00;99.90;;;;;;5052505;28;20161;-85
2023/11/24 01:40:11;;;;;;;22.20;5.20;;;12.10;99.90;;;;;;5051710;28;20206;-83
2023/11/24 01:42:37;;;;;;;17.97;4.60;;;12.10;99.90;;;;;;5052844;28;20175;-85
2023/11/24 01:45:09;;;;;;;15.97;3.77;;;12.10;99.90;;;;;;5053818;28;20198;-84
2023/11/24 01:47:34;;;;;;;16.73;5.33;;;11.90;99.90;;;;;;5050786;28;20327;-84
2023/11/24 01:50:02;;;;;;;13.87;4.57;;;11.90;99.90;;;;;;5053115;28;20248;-83
2023/11/24 01:52:28;;;;;;;15.00;4.67;;;12.00;99.90;;;;;;5053226;28;20185;-84
2023/11/24 01:54:54;;;;;;;17.73;4.67;;;11.90;99.90;;;;;;5051903;28;20165;-84
2023/11/24 01:57:21;;;;;;;15.93;4.70;;;11.90;99.90;;;;;;5051900;28;20663;-84
2023/11/24 01:59:47;;;;;;;17.53;4.20;;;11.80;99.90;;;;;;5050950;28;20280;-84
2023/11/24 02:02:14;;;;;;;16.27;4.73;;;11.70;99.90;;;;;;5052085;28;20583;-84
2023/11/24 02:04:41;;;;;;;16.37;4.43;;;11.70;99.90;;;;;;5052919;28;20178;-83
2023/11/24 02:07:09;;;;;;;16.70;4.43;;;11.80;99.90;;;;;;5054095;28;20263;-84
2023/11/24 02:09:35;;;;;;;17.43;4.47;;;11.60;99.90;;;;;;5051473;28;20173;-84
2023/11/24 02:12:00;;;;;;;21.43;4.73;;;11.40;99.90;;;;;;5051745;28;20216;-83
2023/11/24 02:14:28;;;;;;;16.50;4.37;;;11.40;99.90;;;;;;5051862;28;20186;-85
2023/11/24 02:16:53;;;;;;;13.80;3.77;;;11.40;99.90;;;;;;5052148;28;20215;-85
2023/11/24 02:19:19;;;;;;;19.90;4.30;;;11.30;99.90;;;;;;5051640;28;20210;-84
2023/11/24 02:21:45;;;;;;;18.23;4.47;;;11.40;99.90;;;;;;5053166;28;20636;-85
2023/11/24 02:24:12;;;;;;;16.53;3.93;;;11.40;99.90;;;;;;5051734;28;20179;-84
2023/11/24 02:26:38;;;;;;;17.73;4.33;;;11.30;99.90;;;;;;5055633;28;20174;-84
2023/11/24 02:29:04;;;;;;;17.97;3.90;;;11.20;99.90;;;;;;5056645;28;20169;-87
2023/11/24 02:31:32;;;;;;;14.63;3.90;;;11.20;99.90;;;;;;5054720;28;20218;-84
2023/11/24 02:33:58;;;;;;;11.57;3.63;;;11.20;99.90;;;;;;5054547;28;20605;-84
2023/11/24 02:36:27;;;;;;;12.80;3.40;;;11.10;99.90;;;;;;5054783;28;20532;-83
2023/11/24 02:38:53;;;;;;;12.03;3.17;;;11.20;99.90;;;;;;5056535;28;20205;-86
2023/11/24 02:41:22;;;;;;;13.77;3.10;;;11.10;99.90;;;;;;5071924;28;20177;-84
2023/11/24 02:43:51;;;;;;;13.17;4.40;;;11.20;99.90;;;;;;5061728;28;20177;-84
2023/11/24 02:46:17;;;;;;;12.87;3.60;;;11.00;99.90;;;;;;5065879;28;20195;-84
2023/11/24 02:48:43;;;;;;;13.33;3.77;;;11.00;99.90;;;;;;5059809;28;20185;-84
2023/11/24 02:51:10;;;;;;;11.87;3.63;;;11.00;99.90;;;;;;5054141;28;20193;-83
2023/11/24 02:53:37;;;;;;;14.53;3.60;;;10.90;99.90;;;;;;5055777;28;20169;-85
2023/11/24 02:56:04;;;;;;;13.50;3.67;;;11.00;99.90;;;;;;5053694;28;20200;-84
2023/11/24 02:58:31;;;;;;;16.27;4.30;;;10.90;99.90;;;;;;5054803;28;20210;-84
2023/11/24 03:00:57;;;;;;;19.40;4.27;;;10.90;99.90;;;;;;5056530;28;20235;-85
2023/11/24 03:03:26;;;;;;;13.73;3.93;;;10.80;99.90;;;;;;5056114;28;20260;-82
2023/11/24 03:05:51;;;;;;;19.20;4.30;;;10.80;99.90;;;;;;5056801;28;20174;-82
2023/11/24 03:08:19;;;;;;;19.43;4.03;;;10.70;99.90;;;;;;5054845;28;20181;-83
2023/11/24 03:10:48;;;;;;;15.83;3.90;;;10.80;99.90;;;;;;5053729;28;20192;-83
2023/11/24 03:13:14;;;;;;;17.03;4.20;;;10.80;99.90;;;;;;5056300;28;20637;-83
2023/11/24 03:15:42;;;;;;;13.67;3.83;;;10.80;99.90;;;;;;5054559;28;20176;-83
2023/11/24 03:18:08;;;;;;;16.00;4.43;;;10.60;99.90;;;;;;5054355;28;20219;-85
2023/11/24 03:20:36;;;;;;;12.53;3.73;;;10.70;99.90;;;;;;5055108;28;20553;-84
2023/11/24 03:23:02;;;;;;;14.60;3.10;;;10.70;99.90;;;;;;5054579;28;20227;-84
2023/11/24 03:25:29;;;;;;;14.53;4.53;;;10.70;99.90;;;;;;5054408;28;20227;-84
2023/11/24 03:27:56;;;;;;;15.60;3.60;;;10.50;99.90;;;;;;5054385;28;20184;-84
2023/11/24 03:30:23;;;;;;;17.10;4.03;;;10.40;99.90;;;;;;5053094;28;20185;-85
2023/11/24 03:32:49;;;;;;;13.00;4.23;;;10.40;99.90;;;;;;5052924;28;20178;-84
2023/11/24 03:35:15;;;;;;;16.90;5.03;;;10.40;99.90;;;;;;5053227;28;20267;-84
2023/11/24 03:37:42;;;;;;;17.83;4.20;;;10.40;99.90;;;;;;5052820;28;20299;-84
2023/11/24 03:40:09;;;;;;;21.73;3.53;;;10.50;99.90;;;;;;5055244;28;20220;-84
2023/11/24 03:42:35;;;;;;;14.17;3.30;;;10.40;99.90;;;;;;5053456;28;20255;-84
2023/11/24 03:45:04;;;;;;;17.93;3.27;;;10.40;99.90;;;;;;5054893;28;20173;-84
2023/11/24 03:47:30;;;;;;;15.07;3.53;;;10.30;99.90;;;;;;5055601;28;20179;-85
2023/11/24 03:49:57;;;;;;;17.03;3.73;;;10.30;99.90;;;;;;5054240;28;20169;-84
2023/11/24 03:52:23;;;;;;;12.43;3.53;;;10.30;99.90;;;;;;5054123;28;20169;-85
2023/11/24 03:54:50;;;;;;;15.07;4.17;;;10.30;99.90;;;;;;5053945;28;20177;-84
2023/11/24 03:57:17;;;;;;;17.00;3.80;;;10.30;99.90;;;;;;5054105;28;20263;-84
2023/11/24 03:59:42;;;;;;;14.37;4.00;;;10.40;99.90;;;;;;5053495;28;20747;-84
2023/11/24 04:02:08;;;;;;;19.77;4.07;;;10.40;99.90;;;;;;5057945;28;20205;-83
2023/11/24 04:04:34;;;;;;;17.37;4.60;;;10.30;99.90;;;;;;5068189;28;20178;-84
2023/11/24 04:07:03;;;;;;;12.93;3.27;;;10.50;99.90;;;;;;5054574;28;20169;-85
2023/11/24 04:09:29;;;;;;;15.10;4.17;;;10.20;99.90;;;;;;5053280;28;20271;-84
2023/11/24 04:11:55;;;;;;;15.03;4.27;;;10.30;99.90;;;;;;5054655;28;20715;-84
2023/11/24 04:14:21;;;;;;;17.73;3.93;;;10.20;99.90;;;;;;5054981;28;20731;-85
2023/11/24 04:16:47;;;;;;;14.90;3.60;;;10.20;99.90;;;;;;5053087;28;20246;-84
2023/11/24 04:19:13;;;;;;;15.00;3.53;;;10.30;99.90;;;;;;5053290;28;20630;-85
2023/11/24 04:21:41;;;;;;;16.73;3.50;;;10.10;99.90;;;;;;5053968;28;20183;-83
2023/11/24 04:24:07;;;;;;;18.60;3.97;;;10.10;99.90;;;;;;5053208;28;20177;-84
2023/11/24 04:26:34;;;;;;;18.30;4.27;;;10.00;99.90;;;;;;5053573;28;20208;-84
2023/11/24 04:29:01;;;;;;;15.43;3.63;;;10.10;99.90;;;;;;5052064;28;20185;-85
2023/11/24 04:31:27;;;;;;;14.63;3.70;;;10.10;99.90;;;;;;5052654;28;20181;-85
2023/11/24 04:33:53;;;;;;;12.63;3.77;;;10.20;99.90;;;;;;5053912;28;20264;-86
2023/11/24 04:36:19;;;;;;;18.13;4.50;;;10.10;99.90;;;;;;5053527;28;20177;-82
2023/11/24 04:38:45;;;;;;;14.50;3.27;;;10.10;99.90;;;;;;5066117;28;20223;-84
2023/11/24 04:41:12;;;;;;;17.40;3.70;;;10.00;99.90;;;;;;5066415;28;20185;-83
2023/11/24 04:43:38;;;;;;;18.13;4.13;;;10.00;99.90;;;;;;5054130;28;20231;-84
2023/11/24 04:46:06;;;;;;;17.70;4.07;;;10.10;99.90;;;;;;5052779;28;20208;-84
2023/11/24 04:48:34;;;;;;;14.73;4.07;;;10.00;99.90;;;;;;5072268;28;20203;-82
2023/11/24 04:51:00;;;;;;;13.60;4.03;;;10.00;99.90;;;;;;5070620;28;20188;-84
2023/11/24 04:53:25;;;;;;;14.23;4.03;;;10.00;99.90;;;;;;5066325;28;20165;-82
2023/11/24 04:55:51;;;;;;;17.17;3.70;;;10.20;99.90;;;;;;5064079;28;20185;-82
2023/11/24 04:58:16;;;;;;;11.33;3.77;;;10.00;99.90;;;;;;5063671;28;20180;-83
2023/11/24 05:00:42;;;;;;;18.60;4.33;;;9.90;99.90;;;;;;5059149;28;20181;-85
2023/11/24 05:03:08;;;;;;;16.73;3.87;;;9.80;99.90;;;;;;5055005;28;20626;-86
2023/11/24 05:05:33;;;;;;;15.97;3.97;;;9.90;99.90;;;;;;5053684;28;20191;-86
2023/11/24 05:07:59;;;;;;;16.37;3.80;;;9.70;99.90;;;;;;5052098;28;20169;-85
2023/11/24 05:10:25;;;;;;;14.47;3.90;;;9.70;99.90;;;;;;5052671;28;20672;-84
2023/11/24 05:12:50;;;;;;;15.57;3.80;;;9.80;99.90;;;;;;5056724;28;20179;-86
2023/11/24 05:15:24;;;;;;;16.23;3.37;;;9.80;99.90;;;;;;5056706;28;20531;-85
2023/11/24 05:17:50;;;;;;;12.73;3.37;;;9.80;99.90;;;;;;5052284;28;20253;-85
2023/11/24 05:20:18;;;;;;;13.73;3.40;;;10.00;99.90;;;;;;5060947;28;20224;-85
2023/11/24 05:22:44;;;;;;;12.67;3.70;;;9.90;99.90;;;;;;5072809;28;20264;-83
2023/11/24 05:25:10;;;;;;;15.63;4.67;;;9.70;99.90;;;;;;5070708;28;20166;-83
2023/11/24 05:27:36;;;;;;;15.43;3.37;;;9.70;99.90;;;;;;5068126;28;20184;-84
2023/11/24 05:30:06;;;;;;;13.67;3.43;;;9.90;99.90;;;;;;5055502;28;20270;-85
2023/11/24 05:32:32;;;;;;;12.60;3.30;;;9.90;99.90;;;;;;5052119;28;20173;-85
2023/11/24 05:34:57;;;;;;;15.50;3.97;;;9.90;99.90;;;;;;5052471;28;20596;-84
2023/11/24 05:37:23;;;;;;;15.00;3.70;;;9.90;99.90;;;;;;5053448;28;20165;-84
2023/11/24 05:39:48;;;;;;;14.97;3.87;;;9.70;99.90;;;;;;5052799;28;20205;-84
2023/11/24 05:42:16;;;;;;;17.90;4.40;;;9.70;99.90;;;;;;5053877;28;20173;-85
2023/11/24 05:44:42;;;;;;;14.40;4.10;;;9.60;99.90;;;;;;5052346;28;20173;-82
2023/11/24 05:47:09;;;;;;;15.07;3.63;;;9.50;99.90;;;;;;5051378;28;20259;-83
2023/11/24 05:49:34;;;;;;;15.47;3.83;;;9.50;99.90;;;;;;5052217;28;20188;-84
2023/11/24 05:52:00;;;;;;;14.60;4.37;;;9.50;99.90;;;;;;5050712;28;20173;-85
2023/11/24 05:54:26;;;;;;;13.53;4.23;;;9.60;99.90;;;;;;5052472;28;20248;-84
2023/11/24 05:56:51;;;;;;;18.47;4.07;;;9.80;99.90;;;;;;5052082;28;20201;-84
2023/11/24 05:59:21;;;;;;;20.13;4.37;;;9.50;99.90;;;;;;5052860;28;20212;-83
2023/11/24 06:01:46;;;;;;;15.53;3.87;;;9.40;99.90;;;;;;5057605;28;20206;-83
2023/11/24 06:04:12;;;;;;;14.13;4.20;;;9.50;99.90;;;;;;5055695;28;20684;-85
2023/11/24 06:06:38;;;;;;;14.60;3.50;;;9.50;99.90;;;;;;5056265;28;20173;-84
2023/11/24 06:09:03;;;;;;;14.03;4.40;;;9.70;99.90;;;;;;5054775;28;20176;-84
2023/11/24 06:11:29;;;;;;;18.20;4.83;;;9.70;99.90;;;;;;5055049;28;20505;-84
2023/11/24 06:13:54;;;;;;;14.50;4.50;;;9.80;99.90;;;;;;5055335;28;20177;-85
2023/11/24 06:16:23;;;;;;;20.10;4.27;;;9.60;99.90;;;;;;5056719;28;20228;-85
2023/11/24 06:18:48;;;;;;;24.03;4.80;;;9.70;99.90;;;;;;5056629;28;20192;-84
2023/11/24 06:21:14;;;;;;;18.90;3.97;;;9.60;99.90;;;;;;5054906;28;20258;-84
2023/11/24 06:23:40;;;;;;;17.63;4.70;;;9.60;99.90;;;;;;5056041;28;20655;-85
2023/11/24 06:26:09;;;;;;;17.37;4.30;;;9.30;99.90;;;;;;5054857;28;20212;-83
2023/11/24 06:28:35;;;;;;;15.57;4.63;;;9.30;99.90;;;;;;5054984;28;20211;-82
2023/11/24 06:31:01;;;;;;;19.40;3.97;;;9.20;99.90;;;;;;5055886;28;20208;-84
2023/11/24 06:33:27;;;;;;;17.67;4.70;;;9.10;99.90;;;;;;5055992;28;20215;-86
2023/11/24 06:35:55;;;;;;;17.40;4.27;;;9.20;99.90;;;;;;5034887;28;20622;-85
2023/11/24 06:38:21;;;;;;;16.67;4.63;;;9.00;99.90;;;;;;5035324;28;20182;-86
2023/11/24 06:40:48;;;;;;;17.17;4.30;;;8.90;99.90;;;;;;5036023;28;20174;-84
2023/11/24 06:43:13;;;;;;;16.60;3.90;;;9.10;99.90;;;;;;5036703;28;20220;-88
2023/11/24 06:45:39;;;;;;;17.13;4.17;;;9.00;99.90;;;;;;5041076;28;20181;-85
2023/11/24 06:48:05;;;;;;;17.50;4.53;;;8.90;99.90;;;;;;5048427;28;20181;-86
2023/11/24 06:50:33;;;;;;;17.47;5.07;;;8.80;99.90;;;;;;5038398;28;20169;-85
2023/11/24 06:52:58;;;;;;;13.33;3.93;;;8.80;99.90;;;;;;5036590;28;20166;-86
2023/11/24 06:55:24;;;;;;;13.50;3.97;;;8.90;99.90;;;;;;5035500;28;20599;-86
2023/11/24 06:57:50;;;;;;;17.53;4.33;;;8.80;99.90;;;;;;5034226;28;20196;-86
2023/11/24 07:00:17;;;;;;;15.73;4.13;;;8.80;99.90;;;;;;5018031;28;20217;-86
2023/11/24 07:02:49;;;;;;;16.80;3.47;;;8.80;99.90;;;;;;5036903;28;20653;-86
2023/11/24 07:05:18;;;;;;;15.20;4.73;;;8.80;99.90;;;;;;5054993;28;20532;-87
2023/11/24 07:07:44;;;;;;;14.30;4.00;;;8.80;99.90;;;;;;5054698;28;20264;-87
2023/11/24 07:10:13;;;;;;;22.63;4.47;;;8.80;99.90;;;;;;5053376;28;20249;-85
2023/11/24 07:12:43;;;;;;;12.97;4.23;;;8.80;99.90;;;;;;5059539;28;20215;-87
2023/11/24 07:15:12;;;;;;;13.17;4.17;;;8.80;99.90;;;;;;5058755;28;20181;-85
2023/11/24 07:17:38;;;;;;;17.67;3.87;;;9.00;99.90;;;;;;5053508;28;20234;-87
2023/11/24 07:20:05;;;;;;;15.93;4.10;;;8.90;99.90;;;;;;5052188;28;20212;-86
2023/11/24 07:22:31;;;;;;;17.83;4.20;;;8.80;99.90;;;;;;5052807;28;20173;-86
2023/11/24 07:24:57;;;;;;;11.33;3.43;;;8.90;99.90;;;;;;5051701;28;20180;-86
2023/11/24 07:27:23;;;;;;;17.00;3.97;;;8.90;99.90;;;;;;5054910;28;20176;-86
2023/11/24 07:29:49;;;;;;;12.37;3.53;;;8.80;99.90;;;;;;5054838;28;20675;-86
2023/11/24 07:32:15;;;;;;;12.63;3.27;;;8.70;99.90;;;;;;5054492;28;20173;-85
2023/11/24 07:34:42;;;;;;;10.37;3.43;;;8.80;99.90;;;;;;5054768;28;20177;-86
2023/11/24 07:37:08;;;;;;;16.07;3.97;;;8.80;99.90;;;;;;5054723;28;20169;-84
2023/11/24 07:39:34;;;;;;;13.93;3.47;;;8.80;99.90;;;;;;5053327;28;20212;-86
2023/11/24 07:41:59;;;;;;;11.70;2.80;;;8.80;99.90;;;;;;5055636;28;20208;-86
2023/11/24 07:44:31;;;;;;;18.80;4.43;;;8.80;99.90;;;;;;5054575;28;20577;-86
2023/11/24 07:46:57;;;;;;;13.90;5.60;;;8.80;99.90;;;;;;5055999;28;20161;-85
2023/11/24 07:49:22;;;;;;;16.50;5.10;;;9.10;99.90;;;;;;5055049;28;20238;-85
2023/11/24 07:51:48;;;;;;;19.70;6.77;;;8.80;99.90;;;;;;5057912;28;20671;-85
2023/11/24 07:54:14;;;;;;;19.47;9.93;;;8.90;99.90;;;;;;5064653;28;20166;-84
2023/11/24 07:56:40;;;;;;;19.33;7.27;;;9.00;99.90;;;;;;5067469;28;20204;-85
2023/11/24 07:59:05;;;;;;;27.83;12.53;;;9.00;99.90;;;;;;5067022;28;20649;-84
2023/11/24 08:01:34;;;;;;;16.67;4.73;;;9.00;99.90;;;;;;5060175;28;20219;-85
2023/11/24 08:04:01;;;;;;;10.60;2.80;;;8.90;99.90;;;;;;5057063;28;20625;-86
2023/11/24 08:06:30;;;;;;;21.93;4.63;;;8.90;99.90;;;;;;5053950;28;20211;-86
2023/11/24 08:09:03;;;;;;;9.93;3.07;;;8.90;99.90;;;;;;5056548;28;20283;-86
2023/11/24 08:11:33;;;;;;;14.27;4.37;;;8.90;99.90;;;;;;5056472;28;20196;-84
2023/11/24 08:13:58;;;;;;;15.53;6.23;;;8.90;99.90;;;;;;5064659;28;20180;-86
2023/11/24 08:16:24;;;;;;;14.83;4.60;;;8.90;99.90;;;;;;5057030;28;20165;-84
2023/11/24 08:18:51;;;;;;;19.50;7.07;;;9.00;99.90;;;;;;5055695;28;20212;-85
2023/11/24 08:21:18;;;;;;;11.87;4.73;;;9.00;99.90;;;;;;5055970;28;20212;-86
2023/11/24 08:23:44;;;;;;;20.57;9.03;;;9.10;99.90;;;;;;5058253;28;20492;-86
2023/11/24 08:26:17;;;;;;;15.27;5.63;;;9.10;99.90;;;;;;5057743;28;20181;-85
2023/11/24 08:28:44;;;;;;;15.63;3.50;;;9.30;99.90;;;;;;5057588;28;20211;-85
2023/11/24 08:31:16;;;;;;;13.40;3.50;;;9.20;99.90;;;;;;5057539;28;20636;-84
2023/11/24 08:33:42;;;;;;;11.03;3.50;;;9.30;99.90;;;;;;5056390;28;20180;-85
2023/11/24 08:36:07;;;;;;;14.60;3.60;;;9.30;99.90;;;;;;5055536;28;20514;-86
2023/11/24 08:38:33;;;;;;;9.73;2.97;;;9.30;99.90;;;;;;5054892;28;20606;-83
2023/11/24 08:40:59;;;;;;;9.37;3.20;;;9.30;99.90;;;;;;5052951;28;20169;-85
2023/11/24 08:43:26;;;;;;;12.30;3.20;;;9.20;99.90;;;;;;5054493;28;20509;-83
2023/11/24 08:45:51;;;;;;;11.60;3.63;;;9.10;99.90;;;;;;5053714;28;20652;-85
2023/11/24 08:48:17;;;;;;;13.40;3.23;;;9.00;99.90;;;;;;5053345;28;20199;-86
2023/11/24 08:50:43;;;;;;;9.47;2.67;;;8.90;99.90;;;;;;5054116;28;20180;-85
2023/11/24 08:53:09;;;;;;;9.63;2.37;;;8.80;99.90;;;;;;5053965;28;20177;-83
2023/11/24 08:55:34;;;;;;;15.17;3.60;;;8.50;99.90;;;;;;5052715;28;20533;-86
2023/11/24 08:58:00;;;;;;;10.93;3.60;;;8.60;99.90;;;;;;5054193;28;20176;-86
2023/11/24 09:00:29;;;;;;;9.47;3.47;;;8.50;99.90;;;;;;5052897;28;20219;-83
2023/11/24 09:03:15;;;;;;;8.20;2.37;;;8.30;99.90;;;;;;5091198;27;20647;-85
2023/11/24 09:05:42;;;;;;;11.50;2.60;;;8.20;99.90;;;;;;5093221;28;20232;-86
2023/11/24 09:08:08;;;;;;;8.77;3.13;;;8.40;99.90;;;;;;5089857;28;20270;-86
2023/11/24 09:10:33;;;;;;;6.93;2.20;;;8.20;99.90;;;;;;5091411;28;20195;-86
2023/11/24 09:12:59;;;;;;;9.93;2.90;;;8.30;99.90;;;;;;5091041;28;20186;-85
2023/11/24 09:15:24;;;;;;;8.23;2.87;;;8.10;99.90;;;;;;5091655;28;20533;-85
2023/11/24 09:17:51;;;;;;;13.47;3.37;;;8.10;99.90;;;;;;5091127;28;20593;-86
2023/11/24 09:20:17;;;;;;;14.77;3.80;;;8.10;99.90;;;;;;5089821;28;20187;-86
2023/11/24 09:22:44;;;;;;;9.03;3.00;;;8.20;99.90;;;;;;5089913;28;20211;-84
2023/11/24 09:25:11;;;;;;;10.87;2.80;;;8.20;99.90;;;;;;5089647;28;20179;-85
2023/11/24 09:27:38;;;;;;;13.67;3.50;;;8.00;99.90;;;;;;5090731;28;20164;-86
2023/11/24 09:30:08;;;;;;;9.43;2.80;;;8.00;99.90;;;;;;5089278;28;20167;-86
2023/11/24 09:32:35;;;;;;;11.77;2.60;;;7.90;99.90;;;;;;5090999;28;20635;-85
2023/11/24 09:35:06;;;;;;;6.73;2.77;;;7.90;99.90;;;;;;5090235;28;20176;-85
2023/11/24 09:37:33;;;;;;;7.33;2.20;;;7.80;99.90;;;;;;5089331;28;20171;-86
2023/11/24 09:39:58;;;;;;;11.30;3.00;;;7.80;99.90;;;;;;5089329;28;20167;-84
2023/11/24 09:42:37;;;;;;;9.10;2.33;;;7.70;99.90;;;;;;5090432;28;20287;-85
2023/11/24 09:45:08;;;;;;;5.80;2.07;;;7.70;99.90;;;;;;5089301;28;20164;-84
2023/11/24 09:47:34;;;;;;;8.43;1.97;;;7.70;99.90;;;;;;5088380;28;20172;-85
2023/11/24 09:50:01;;;;;;;6.57;2.00;;;7.70;99.90;;;;;;5089854;28;20217;-86
2023/11/24 09:52:27;;;;;;;10.10;2.30;;;7.70;99.90;;;;;;5090094;28;20172;-86
2023/11/24 09:54:59;;;;;;;9.00;2.43;;;7.70;99.90;;;;;;5089713;28;20692;-84
2023/11/24 09:57:25;;;;;;;8.70;2.13;;;7.70;99.90;;;;;;5093371;28;20164;-84
2023/11/24 09:59:51;;;;;;;9.50;2.13;;;7.70;99.90;;;;;;5090379;28;20199;-85
2023/11/24 10:02:20;;;;;;;7.30;2.57;;;7.90;99.90;;;;;;5088863;28;20246;-84
2023/11/24 10:04:46;;;;;;;8.07;2.27;;;7.90;99.90;;;;;;5089107;28;20175;-85
2023/11/24 10:07:20;;;;;;;7.20;2.50;;;7.70;99.90;;;;;;5089204;28;20180;-83
2023/11/24 10:09:50;;;;;;;4.70;1.60;;;7.50;99.90;;;;;;5091180;28;20191;-85
2023/11/24 10:12:17;;;;;;;6.00;2.07;;;7.40;99.90;;;;;;5094205;28;20181;-85
2023/11/24 10:14:43;;;;;;;4.40;1.93;;;7.40;99.90;;;;;;5079305;28;20628;-84
2023/11/24 10:17:18;;;;;;;5.07;1.67;;;7.40;99.90;;;;;;5078042;28;20172;-86
2023/11/24 10:19:44;;;;;;;5.93;1.33;;;7.40;99.90;;;;;;5079153;28;20194;-84
2023/11/24 10:22:09;;;;;;;4.30;1.90;;;7.30;99.90;;;;;;5084681;28;20232;-84
2023/11/24 10:24:39;;;;;;;5.73;1.70;;;7.40;99.90;;;;;;5083158;28;20169;-86
2023/11/24 10:27:23;;;;;;;7.90;2.13;;;7.50;99.90;;;;;;5080925;28;20182;-86
2023/11/24 10:29:52;;;;;;;5.87;1.80;;;7.60;99.90;;;;;;5093330;28;20156;-84
2023/11/24 10:32:19;;;;;;;3.60;1.63;;;7.60;99.90;;;;;;5093665;28;20181;-85
2023/11/24 10:34:48;;;;;;;5.97;1.30;;;7.60;99.90;;;;;;5088306;28;20216;-85
2023/11/24 10:37:17;;;;;;;6.70;1.43;;;7.60;99.90;;;;;;5077411;28;20187;-85
2023/11/24 10:39:46;;;;;;;6.90;2.13;;;7.60;99.90;;;;;;5075509;28;20236;-84
2023/11/24 10:42:15;;;;;;;4.57;1.73;;;7.50;99.90;;;;;;5085333;28;20200;-83
2023/11/24 10:44:42;;;;;;;4.43;1.63;;;7.60;99.90;;;;;;5084453;28;20169;-86
2023/11/24 10:47:09;;;;;;;6.57;2.00;;;7.60;99.90;;;;;;5079757;28;20172;-83
2023/11/24 10:49:41;;;;;;;4.53;1.70;;;7.60;99.90;;;;;;5077863;28;20732;-83
2023/11/24 10:52:19;;;;;;;6.63;1.30;;;7.50;99.90;;;;;;5079819;28;20172;-82
2023/11/24 10:54:51;;;;;;;6.77;1.47;;;7.40;99.90;;;;;;5076744;28;20218;-85
2023/11/24 10:57:20;;;;;;;6.20;1.43;;;7.30;99.90;;;;;;5085279;28;20640;-85
2023/11/24 10:59:49;;;;;;;4.90;1.43;;;7.30;99.90;;;;;;5074330;28;20164;-86
2023/11/24 11:02:15;;;;;;;5.60;1.63;;;7.40;99.90;;;;;;5074009;28;20314;-86
2023/11/24 11:04:55;;;;;;;4.37;1.20;;;7.40;99.90;;;;;;5073991;28;20176;-85
2023/11/24 11:07:27;;;;;;;5.30;1.90;;;7.30;99.90;;;;;;5073820;28;20267;-85
2023/11/24 11:09:58;;;;;;;4.97;1.53;;;7.30;99.90;;;;;;5074526;28;20161;-87
2023/11/24 11:12:38;;;;;;;5.47;1.50;;;7.30;99.90;;;;;;5074892;28;20180;-87
2023/11/24 11:15:10;;;;;;;7.17;2.00;;;7.30;99.90;;;;;;5074507;28;20673;-87
2023/11/24 11:17:37;;;;;;;8.03;2.00;;;7.30;99.90;;;;;;5075792;28;20184;-87
2023/11/24 11:20:12;;;;;;;4.23;1.57;;;7.40;99.90;;;;;;5075367;28;20204;-85
2023/11/24 11:22:43;;;;;;;5.20;1.60;;;7.40;99.90;;;;;;5074960;28;20227;-86
2023/11/24 11:25:25;;;;;;;6.33;1.37;;;7.40;99.90;;;;;;5074209;28;20176;-88
2023/11/24 11:27:54;;;;;;;4.33;1.90;;;7.40;99.90;;;;;;5075531;28;20362;-86
2023/11/24 11:30:26;;;;;;;4.97;1.57;;;7.50;99.90;;;;;;5076090;28;20210;-86
2023/11/24 11:33:10;;;;;;;5.47;1.60;;;7.40;99.90;;;;;;5076459;28;20184;-87
2023/11/24 11:35:36;;;;;;;3.23;1.40;;;7.40;99.90;;;;;;5077188;28;20168;-87
2023/11/24 11:38:04;;;;;;;3.77;1.10;;;7.40;99.90;;;;;;5079163;28;20180;-87
2023/11/24 11:40:33;;;;;;;3.47;1.00;;;7.30;99.90;;;;;;5077875;28;20163;-87
2023/11/24 11:43:05;;;;;;;4.13;1.30;;;7.20;99.90;;;;;;5075930;28;20220;-86
2023/11/24 11:45:32;;;;;;;2.87;0.90;;;7.20;99.90;;;;;;5077651;28;20174;-87
2023/11/24 11:48:02;;;;;;;4.47;1.07;;;7.20;99.90;;;;;;5082662;28;20190;-88
2023/11/24 11:50:28;;;;;;;6.77;1.10;;;7.20;99.90;;;;;;5082038;28;20172;-86
2023/11/24 11:53:00;;;;;;;3.93;1.83;;;7.30;99.90;;;;;;5076684;28;20263;-88
2023/11/24 11:55:28;;;;;;;5.43;1.13;;;7.30;99.90;;;;;;5073556;28;20215;-87
2023/11/24 11:57:55;;;;;;;8.00;1.40;;;7.20;99.90;;;;;;5073957;28;20678;-85
2023/11/24 12:00:28;;;;;;;5.57;1.40;;;7.20;99.90;;;;;;5077799;28;20172;-85
2023/11/24 12:02:58;;;;;;;6.20;1.90;;;7.30;99.90;;;;;;5076246;28;20714;-85
2023/11/24 12:05:25;;;;;;;3.93;1.30;;;7.30;99.90;;;;;;5074010;28;20161;-87
2023/11/24 12:07:53;;;;;;;6.40;1.37;;;7.20;99.90;;;;;;5072648;28;20199;-86
2023/11/24 12:10:20;;;;;;;3.67;1.50;;;7.30;99.90;;;;;;5074883;28;20247;-86
2023/11/24 12:12:46;;;;;;;7.60;1.83;;;7.10;99.90;;;;;;5071995;28;20221;-86
2023/11/24 12:15:19;;;;;;;5.00;1.57;;;7.20;99.90;;;;;;5074907;28;20247;-85
2023/11/24 12:17:44;;;;;;;3.67;1.50;;;7.10;99.90;;;;;;5083331;28;20187;-85
2023/11/24 12:20:14;;;;;;;3.27;1.30;;;7.20;99.90;;;;;;5078226;28;20188;-86
2023/11/24 12:22:43;;;;;;;3.73;1.53;;;7.30;99.90;;;;;;5077903;28;20254;-86
2023/11/24 12:25:12;;;;;;;5.37;1.90;;;7.40;99.90;;;;;;5073352;28;20177;-86
2023/11/24 12:27:42;;;;;;;5.93;2.63;;;7.50;99.90;;;;;;5074300;28;20208;-86
2023/11/24 12:30:10;;;;;;;6.80;1.80;;;7.50;99.90;;;;;;5072706;28;20631;-86
2023/11/24 12:32:37;;;;;;;6.43;1.83;;;7.50;99.90;;;;;;5068809;28;20176;-86
2023/11/24 12:35:09;;;;;;;6.90;1.67;;;7.40;99.90;;;;;;5062942;28;20231;-87
2023/11/24 12:37:44;;;;;;;7.27;2.03;;;7.40;99.90;;;;;;5055728;28;20173;-85
2023/11/24 12:40:10;;;;;;;6.40;1.80;;;7.60;99.90;;;;;;5058817;28;20655;-86
2023/11/24 12:42:38;;;;;;;5.90;1.60;;;7.50;99.90;;;;;;5055789;28;20307;-86
2023/11/24 12:45:08;;;;;;;7.53;1.73;;;7.50;99.90;;;;;;5059421;28;20157;-86